sensor_id;sensor_type;location;lat;lon;timestamp;temperature;humidity
37050;DHT22;22958;51.232;6.826;2023-05-21T00:01:35;14.60;99.90
37050;DHT22;22958;51.232;6.826;2023-05-21T00:04:01;14.60;99.90
37050;DHT22;22958;51.232;6.826;2023-05-21T00:06:27;14.50;99.90
37050;DHT22;22958;51.232;6.826;2023-05-21T00:08:53;14.50;99.90
37050;DHT22;22958;51.232;6.826;2023-05-21T00:11:18;14.50;99.90
37050;DHT22;22958;51.232;6.826;2023-05-21T00:13:44;14.50;99.90
37050;DHT22;22958;51.232;6.826;2023-05-21T00:16:09;14.50;99.90
37050;DHT22;22958;51.232;6.826;2023-05-21T00:18:36;14.40;99.90
37050;DHT22;22958;51.232;6.826;2023-05-21T00:21:04;14.50;99.90
37050;DHT22;22958;51.232;6.826;2023-05-21T00:23:29;14.50;99.90
37050;DHT22;22958;51.232;6.826;2023-05-21T00:25:57;14.40;99.90
37050;DHT22;22958;51.232;6.826;2023-05-21T00:28:22;14.40;99.90
37050;DHT22;22958;51.232;6.826;2023-05-21T00:30:48;14.40;99.90
37050;DHT22;22958;51.232;6.826;2023-05-21T00:33:13;14.40;99.90
37050;DHT22;22958;51.232;6.826;2023-05-21T00:35:39;14.30;99.90
37050;DHT22;22958;51.232;6.826;2023-05-21T00:38:05;14.30;99.90
37050;DHT22;22958;51.232;6.826;2023-05-21T00:40:34;14.30;99.90
37050;DHT22;22958;51.232;6.826;2023-05-21T00:42:59;14.30;99.90
37050;DHT22;22958;51.232;6.826;2023-05-21T00:45:25;14.30;99.90
37050;DHT22;22958;51.232;6.826;2023-05-21T00:47:51;14.30;99.90
37050;DHT22;22958;51.232;6.826;2023-05-21T00:50:20;14.30;99.90
37050;DHT22;22958;51.232;6.826;2023-05-21T00:52:47;14.30;99.90
37050;DHT22;22958;51.232;6.826;2023-05-21T00:55:13;14.20;99.90
37050;DHT22;22958;51.232;6.826;2023-05-21T00:57:39;14.20;99.90
37050;DHT22;22958;51.232;6.826;2023-05-21T01:00:06;14.20;99.90
37050;DHT22;22958;51.232;6.826;2023-05-21T01:02:36;14.10;99.90
37050;DHT22;22958;51.232;6.826;2023-05-21T01:05:02;14.10;99.90
37050;DHT22;22958;51.232;6.826;2023-05-21T01:07:30;14.10;99.90
37050;DHT22;22958;51.232;6.826;2023-05-21T01:10:00;14.00;99.90
37050;DHT22;22958;51.232;6.826;2023-05-21T01:12:26;14.00;99.90
37050;DHT22;22958;51.232;6.826;2023-05-21T01:14:52;14.00;99.90
37050;DHT22;22958;51.232;6.826;2023-05-21T01:17:18;13.90;99.90
37050;DHT22;22958;51.232;6.826;2023-05-21T01:19:48;13.90;99.90
37050;DHT22;22958;51.232;6.826;2023-05-21T01:22:15;13.90;99.90
37050;DHT22;22958;51.232;6.826;2023-05-21T01:24:44;13.80;99.90
37050;DHT22;22958;51.232;6.826;2023-05-21T01:27:11;13.80;99.90
37050;DHT22;22958;51.232;6.826;2023-05-21T01:29:37;13.80;99.90
37050;DHT22;22958;51.232;6.826;2023-05-21T01:32:14;13.80;99.90
37050;DHT22;22958;51.232;6.826;2023-05-21T01:37:21;13.80;99.90
37050;DHT22;22958;51.232;6.826;2023-05-21T01:39:55;13.70;99.90
37050;DHT22;22958;51.232;6.826;2023-05-21T01:42:22;13.80;99.90
37050;DHT22;22958;51.232;6.826;2023-05-21T01:44:51;13.70;99.90
37050;DHT22;22958;51.232;6.826;2023-05-21T01:47:22;13.70;99.90
37050;DHT22;22958;51.232;6.826;2023-05-21T01:49:49;13.70;99.90
37050;DHT22;22958;51.232;6.826;2023-05-21T01:52:14;13.70;99.90
37050;DHT22;22958;51.232;6.826;2023-05-21T01:54:40;13.70;99.90
37050;DHT22;22958;51.232;6.826;2023-05-21T01:57:05;13.70;99.90
37050;DHT22;22958;51.232;6.826;2023-05-21T01:59:31;13.70;99.90
37050;DHT22;22958;51.232;6.826;2023-05-21T02:01:57;13.70;99.90
37050;DHT22;22958;51.232;6.826;2023-05-21T02:04:22;13.70;99.90
37050;DHT22;22958;51.232;6.826;2023-05-21T02:06:48;13.60;99.90
37050;DHT22;22958;51.232;6.826;2023-05-21T02:09:13;13.60;99.90
37050;DHT22;22958;51.232;6.826;2023-05-21T02:11:39;13.60;99.90
37050;DHT22;22958;51.232;6.826;2023-05-21T02:14:04;13.60;99.90
37050;DHT22;22958;51.232;6.826;2023-05-21T02:16:32;13.60;99.90
37050;DHT22;22958;51.232;6.826;2023-05-21T02:18:57;13.60;99.90
37050;DHT22;22958;51.232;6.826;2023-05-21T02:21:24;13.60;99.90
37050;DHT22;22958;51.232;6.826;2023-05-21T02:23:50;13.50;99.90
37050;DHT22;22958;51.232;6.826;2023-05-21T02:26:16;13.50;99.90
37050;DHT22;22958;51.232;6.826;2023-05-21T02:28:42;13.50;99.90
37050;DHT22;22958;51.232;6.826;2023-05-21T02:31:08;13.50;99.90
37050;DHT22;22958;51.232;6.826;2023-05-21T02:33:33;13.50;99.90
37050;DHT22;22958;51.232;6.826;2023-05-21T02:35:59;13.40;99.90
37050;DHT22;22958;51.232;6.826;2023-05-21T02:38:24;13.40;99.90
37050;DHT22;22958;51.232;6.826;2023-05-21T02:40:50;13.40;99.90
37050;DHT22;22958;51.232;6.826;2023-05-21T02:43:16;13.40;99.90
37050;DHT22;22958;51.232;6.826;2023-05-21T02:45:41;13.40;99.90
37050;DHT22;22958;51.232;6.826;2023-05-21T02:48:07;13.40;99.90
37050;DHT22;22958;51.232;6.826;2023-05-21T02:50:33;13.40;99.90
37050;DHT22;22958;51.232;6.826;2023-05-21T02:52:58;13.30;99.90
37050;DHT22;22958;51.232;6.826;2023-05-21T02:55:24;13.40;99.90
37050;DHT22;22958;51.232;6.826;2023-05-21T02:57:50;13.40;99.90
37050;DHT22;22958;51.232;6.826;2023-05-21T03:00:15;13.40;99.90
37050;DHT22;22958;51.232;6.826;2023-05-21T03:02:41;13.40;99.90
37050;DHT22;22958;51.232;6.826;2023-05-21T03:05:07;13.30;99.90
37050;DHT22;22958;51.232;6.826;2023-05-21T03:07:33;13.30;99.90
37050;DHT22;22958;51.232;6.826;2023-05-21T03:09:58;13.30;99.90
37050;DHT22;22958;51.232;6.826;2023-05-21T03:12:24;13.20;99.90
37050;DHT22;22958;51.232;6.826;2023-05-21T03:14:49;13.20;99.90
37050;DHT22;22958;51.232;6.826;2023-05-21T03:17:16;13.20;99.90
37050;DHT22;22958;51.232;6.826;2023-05-21T03:19:42;13.20;99.90
37050;DHT22;22958;51.232;6.826;2023-05-21T03:22:08;13.20;99.90
37050;DHT22;22958;51.232;6.826;2023-05-21T03:24:34;13.20;99.90
37050;DHT22;22958;51.232;6.826;2023-05-21T03:26:59;13.20;99.90
37050;DHT22;22958;51.232;6.826;2023-05-21T03:29:30;13.20;99.90
37050;DHT22;22958;51.232;6.826;2023-05-21T03:31:55;13.20;99.90
37050;DHT22;22958;51.232;6.826;2023-05-21T03:34:21;13.20;99.90
37050;DHT22;22958;51.232;6.826;2023-05-21T03:36:48;13.20;99.90
37050;DHT22;22958;51.232;6.826;2023-05-21T03:39:14;13.20;99.90
37050;DHT22;22958;51.232;6.826;2023-05-21T03:41:39;13.10;99.90
37050;DHT22;22958;51.232;6.826;2023-05-21T03:44:05;13.20;99.90
37050;DHT22;22958;51.232;6.826;2023-05-21T03:46:31;13.20;99.90
37050;DHT22;22958;51.232;6.826;2023-05-21T03:48:57;13.20;99.90
37050;DHT22;22958;51.232;6.826;2023-05-21T03:51:23;13.20;99.90
37050;DHT22;22958;51.232;6.826;2023-05-21T03:53:50;13.20;99.90
37050;DHT22;22958;51.232;6.826;2023-05-21T03:56:16;13.20;99.90
37050;DHT22;22958;51.232;6.826;2023-05-21T03:58:41;13.10;99.90
37050;DHT22;22958;51.232;6.826;2023-05-21T04:01:07;13.10;99.90
37050;DHT22;22958;51.232;6.826;2023-05-21T04:03:33;13.10;99.90
37050;DHT22;22958;51.232;6.826;2023-05-21T04:06:00;13.20;99.90
37050;DHT22;22958;51.232;6.826;2023-05-21T04:08:26;13.20;99.90
37050;DHT22;22958;51.232;6.826;2023-05-21T04:10:51;13.30;99.90
37050;DHT22;22958;51.232;6.826;2023-05-21T04:13:17;13.20;99.90
37050;DHT22;22958;51.232;6.826;2023-05-21T04:15:42;13.20;99.90
37050;DHT22;22958;51.232;6.826;2023-05-21T04:18:09;13.30;99.90
37050;DHT22;22958;51.232;6.826;2023-05-21T04:20:35;13.20;99.90
37050;DHT22;22958;51.232;6.826;2023-05-21T04:23:00;13.30;99.90
37050;DHT22;22958;51.232;6.826;2023-05-21T04:25:27;13.30;99.90
37050;DHT22;22958;51.232;6.826;2023-05-21T04:27:52;13.30;99.90
37050;DHT22;22958;51.232;6.826;2023-05-21T04:30:19;13.30;99.90
37050;DHT22;22958;51.232;6.826;2023-05-21T04:32:44;13.40;99.90
37050;DHT22;22958;51.232;6.826;2023-05-21T04:35:12;13.40;99.90
37050;DHT22;22958;51.232;6.826;2023-05-21T04:37:39;13.50;99.90
37050;DHT22;22958;51.232;6.826;2023-05-21T04:40:09;13.40;99.90
37050;DHT22;22958;51.232;6.826;2023-05-21T04:42:34;13.50;99.90
37050;DHT22;22958;51.232;6.826;2023-05-21T04:45:00;13.50;99.90
37050;DHT22;22958;51.232;6.826;2023-05-21T04:47:26;13.60;99.90
37050;DHT22;22958;51.232;6.826;2023-05-21T04:49:54;13.70;99.90
37050;DHT22;22958;51.232;6.826;2023-05-21T04:52:20;13.70;99.90
37050;DHT22;22958;51.232;6.826;2023-05-21T04:54:45;13.60;99.90
37050;DHT22;22958;51.232;6.826;2023-05-21T04:57:12;13.70;99.90
37050;DHT22;22958;51.232;6.826;2023-05-21T04:59:37;13.70;99.90
37050;DHT22;22958;51.232;6.826;2023-05-21T05:02:03;13.90;99.90
37050;DHT22;22958;51.232;6.826;2023-05-21T05:04:30;13.80;99.90
37050;DHT22;22958;51.232;6.826;2023-05-21T05:06:56;13.90;99.90
37050;DHT22;22958;51.232;6.826;2023-05-21T05:09:21;13.70;99.90
37050;DHT22;22958;51.232;6.826;2023-05-21T05:11:49;13.70;99.90
37050;DHT22;22958;51.232;6.826;2023-05-21T05:14:15;13.70;99.90
37050;DHT22;22958;51.232;6.826;2023-05-21T05:16:40;13.70;99.90
37050;DHT22;22958;51.232;6.826;2023-05-21T05:19:07;13.70;99.90
37050;DHT22;22958;51.232;6.826;2023-05-21T05:21:33;13.70;99.90
37050;DHT22;22958;51.232;6.826;2023-05-21T05:23:59;13.80;99.90
37050;DHT22;22958;51.232;6.826;2023-05-21T05:26:24;13.90;99.90
37050;DHT22;22958;51.232;6.826;2023-05-21T05:28:50;13.90;99.90
37050;DHT22;22958;51.232;6.826;2023-05-21T05:31:16;13.80;99.90
37050;DHT22;22958;51.232;6.826;2023-05-21T05:33:41;14.00;99.90
37050;DHT22;22958;51.232;6.826;2023-05-21T05:36:07;14.10;99.90
37050;DHT22;22958;51.232;6.826;2023-05-21T05:38:33;14.10;99.90
37050;DHT22;22958;51.232;6.826;2023-05-21T05:40:59;13.90;99.90
37050;DHT22;22958;51.232;6.826;2023-05-21T05:43:25;14.00;99.90
37050;DHT22;22958;51.232;6.826;2023-05-21T05:45:53;14.20;99.90
37050;DHT22;22958;51.232;6.826;2023-05-21T05:48:18;14.20;99.90
37050;DHT22;22958;51.232;6.826;2023-05-21T05:50:44;14.30;99.90
37050;DHT22;22958;51.232;6.826;2023-05-21T05:53:10;14.40;99.90
37050;DHT22;22958;51.232;6.826;2023-05-21T05:55:38;14.40;99.90
37050;DHT22;22958;51.232;6.826;2023-05-21T05:58:04;14.50;99.90
37050;DHT22;22958;51.232;6.826;2023-05-21T06:00:29;14.60;99.90
37050;DHT22;22958;51.232;6.826;2023-05-21T06:02:55;14.60;99.90
37050;DHT22;22958;51.232;6.826;2023-05-21T06:05:20;14.30;99.90
37050;DHT22;22958;51.232;6.826;2023-05-21T06:07:46;14.50;99.90
37050;DHT22;22958;51.232;6.826;2023-05-21T06:10:11;14.70;99.90
37050;DHT22;22958;51.232;6.826;2023-05-21T06:12:37;14.80;99.90
37050;DHT22;22958;51.232;6.826;2023-05-21T06:15:03;14.70;99.90
37050;DHT22;22958;51.232;6.826;2023-05-21T06:17:29;14.60;99.90
37050;DHT22;22958;51.232;6.826;2023-05-21T06:19:55;14.80;99.90
37050;DHT22;22958;51.232;6.826;2023-05-21T06:22:20;14.90;99.90
37050;DHT22;22958;51.232;6.826;2023-05-21T06:24:46;14.90;99.90
37050;DHT22;22958;51.232;6.826;2023-05-21T06:27:12;15.00;99.90
37050;DHT22;22958;51.232;6.826;2023-05-21T06:29:37;15.10;99.90
37050;DHT22;22958;51.232;6.826;2023-05-21T06:32:06;15.00;99.90
37050;DHT22;22958;51.232;6.826;2023-05-21T06:34:32;15.00;99.90
37050;DHT22;22958;51.232;6.826;2023-05-21T06:36:58;15.10;99.90
37050;DHT22;22958;51.232;6.826;2023-05-21T06:39:23;15.20;99.90
37050;DHT22;22958;51.232;6.826;2023-05-21T06:41:49;15.40;99.90
37050;DHT22;22958;51.232;6.826;2023-05-21T06:44:15;15.50;99.90
37050;DHT22;22958;51.232;6.826;2023-05-21T06:46:41;15.60;99.90
37050;DHT22;22958;51.232;6.826;2023-05-21T06:49:07;15.60;99.90
37050;DHT22;22958;51.232;6.826;2023-05-21T06:51:32;16.00;99.90
37050;DHT22;22958;51.232;6.826;2023-05-21T06:53:58;16.20;99.90
37050;DHT22;22958;51.232;6.826;2023-05-21T06:56:23;16.30;99.90
37050;DHT22;22958;51.232;6.826;2023-05-21T06:58:49;16.40;99.90
37050;DHT22;22958;51.232;6.826;2023-05-21T07:01:15;16.40;99.90
37050;DHT22;22958;51.232;6.826;2023-05-21T07:03:40;16.20;99.90
37050;DHT22;22958;51.232;6.826;2023-05-21T07:06:06;16.20;99.90
37050;DHT22;22958;51.232;6.826;2023-05-21T07:08:32;16.30;99.90
37050;DHT22;22958;51.232;6.826;2023-05-21T07:10:57;16.30;99.90
37050;DHT22;22958;51.232;6.826;2023-05-21T07:13:23;16.40;99.90
37050;DHT22;22958;51.232;6.826;2023-05-21T07:15:48;16.30;99.90
37050;DHT22;22958;51.232;6.826;2023-05-21T07:18:14;16.20;99.90
37050;DHT22;22958;51.232;6.826;2023-05-21T07:20:41;16.30;99.90
37050;DHT22;22958;51.232;6.826;2023-05-21T07:23:07;16.30;99.90
37050;DHT22;22958;51.232;6.826;2023-05-21T07:25:33;16.30;99.90
37050;DHT22;22958;51.232;6.826;2023-05-21T07:27:58;16.50;99.90
37050;DHT22;22958;51.232;6.826;2023-05-21T07:30:24;16.70;99.90
37050;DHT22;22958;51.232;6.826;2023-05-21T07:32:49;16.40;99.90
37050;DHT22;22958;51.232;6.826;2023-05-21T07:35:15;16.40;99.90
37050;DHT22;22958;51.232;6.826;2023-05-21T07:37:40;16.60;99.90
37050;DHT22;22958;51.232;6.826;2023-05-21T07:40:06;16.80;99.90
37050;DHT22;22958;51.232;6.826;2023-05-21T07:42:32;17.00;99.90
37050;DHT22;22958;51.232;6.826;2023-05-21T07:44:58;17.10;99.90
37050;DHT22;22958;51.232;6.826;2023-05-21T07:47:23;17.20;99.90
37050;DHT22;22958;51.232;6.826;2023-05-21T07:49:49;17.30;99.90
37050;DHT22;22958;51.232;6.826;2023-05-21T07:52:15;17.10;99.90
37050;DHT22;22958;51.232;6.826;2023-05-21T07:54:40;17.10;99.90
37050;DHT22;22958;51.232;6.826;2023-05-21T07:57:05;17.10;99.90
37050;DHT22;22958;51.232;6.826;2023-05-21T07:59:31;17.40;99.90
37050;DHT22;22958;51.232;6.826;2023-05-21T08:01:58;17.40;99.90
37050;DHT22;22958;51.232;6.826;2023-05-21T08:04:23;17.50;99.90
37050;DHT22;22958;51.232;6.826;2023-05-21T08:06:49;17.80;99.90
37050;DHT22;22958;51.232;6.826;2023-05-21T08:09:14;18.00;99.90
37050;DHT22;22958;51.232;6.826;2023-05-21T08:11:40;17.80;99.90
37050;DHT22;22958;51.232;6.826;2023-05-21T08:14:05;17.90;99.90
37050;DHT22;22958;51.232;6.826;2023-05-21T08:16:31;18.00;99.90
37050;DHT22;22958;51.232;6.826;2023-05-21T08:18:56;18.00;99.90
37050;DHT22;22958;51.232;6.826;2023-05-21T08:21:22;17.90;99.90
37050;DHT22;22958;51.232;6.826;2023-05-21T08:23:48;18.10;99.90
37050;DHT22;22958;51.232;6.826;2023-05-21T08:26:13;18.30;99.90
37050;DHT22;22958;51.232;6.826;2023-05-21T08:28:42;18.40;99.90
37050;DHT22;22958;51.232;6.826;2023-05-21T08:31:07;18.80;99.90
37050;DHT22;22958;51.232;6.826;2023-05-21T08:33:36;19.10;99.90
37050;DHT22;22958;51.232;6.826;2023-05-21T08:36:04;18.80;99.90
37050;DHT22;22958;51.232;6.826;2023-05-21T08:38:30;18.80;99.90
37050;DHT22;22958;51.232;6.826;2023-05-21T08:40:55;18.90;99.90
37050;DHT22;22958;51.232;6.826;2023-05-21T08:43:23;19.00;99.90
37050;DHT22;22958;51.232;6.826;2023-05-21T08:45:53;19.50;99.90
37050;DHT22;22958;51.232;6.826;2023-05-21T08:48:23;19.70;99.90
37050;DHT22;22958;51.232;6.826;2023-05-21T08:50:53;19.50;99.90
37050;DHT22;22958;51.232;6.826;2023-05-21T08:53:19;19.40;99.90
37050;DHT22;22958;51.232;6.826;2023-05-21T08:55:45;19.40;99.90
37050;DHT22;22958;51.232;6.826;2023-05-21T08:58:11;19.50;99.90
37050;DHT22;22958;51.232;6.826;2023-05-21T09:00:38;19.90;99.90
37050;DHT22;22958;51.232;6.826;2023-05-21T09:03:04;19.90;99.90
37050;DHT22;22958;51.232;6.826;2023-05-21T09:05:41;20.30;99.90
37050;DHT22;22958;51.232;6.826;2023-05-21T09:08:20;20.40;99.90
37050;DHT22;22958;51.232;6.826;2023-05-21T09:10:48;20.40;99.90
37050;DHT22;22958;51.232;6.826;2023-05-21T09:13:16;20.30;99.90
37050;DHT22;22958;51.232;6.826;2023-05-21T09:15:43;20.10;99.90
37050;DHT22;22958;51.232;6.826;2023-05-21T09:18:09;20.60;99.90
37050;DHT22;22958;51.232;6.826;2023-05-21T09:20:35;20.40;99.90
37050;DHT22;22958;51.232;6.826;2023-05-21T09:23:04;20.70;99.90
37050;DHT22;22958;51.232;6.826;2023-05-21T09:25:31;20.40;99.90
37050;DHT22;22958;51.232;6.826;2023-05-21T09:27:57;20.80;99.90
37050;DHT22;22958;51.232;6.826;2023-05-21T09:30:24;20.70;99.90
37050;DHT22;22958;51.232;6.826;2023-05-21T09:32:56;21.00;99.90
37050;DHT22;22958;51.232;6.826;2023-05-21T09:35:22;21.60;99.90
37050;DHT22;22958;51.232;6.826;2023-05-21T09:37:49;21.90;99.90
37050;DHT22;22958;51.232;6.826;2023-05-21T09:40:16;21.20;99.90
37050;DHT22;22958;51.232;6.826;2023-05-21T09:45:11;20.80;99.90
37050;DHT22;22958;51.232;6.826;2023-05-21T09:47:40;21.30;99.90
37050;DHT22;22958;51.232;6.826;2023-05-21T09:50:08;21.70;99.90
37050;DHT22;22958;51.232;6.826;2023-05-21T09:52:35;21.40;99.90
37050;DHT22;22958;51.232;6.826;2023-05-21T09:55:03;21.20;99.90
37050;DHT22;22958;51.232;6.826;2023-05-21T09:57:29;21.40;99.90
37050;DHT22;22958;51.232;6.826;2023-05-21T09:59:54;21.50;99.90
37050;DHT22;22958;51.232;6.826;2023-05-21T10:02:21;21.20;99.90
37050;DHT22;22958;51.232;6.826;2023-05-21T10:04:48;21.60;99.90
37050;DHT22;22958;51.232;6.826;2023-05-21T10:07:19;22.00;99.90
37050;DHT22;22958;51.232;6.826;2023-05-21T10:09:53;21.50;99.90
37050;DHT22;22958;51.232;6.826;2023-05-21T10:12:22;21.20;99.90
37050;DHT22;22958;51.232;6.826;2023-05-21T10:14:59;21.80;99.90
37050;DHT22;22958;51.232;6.826;2023-05-21T10:17:27;21.90;99.90
37050;DHT22;22958;51.232;6.826;2023-05-21T10:19:55;22.00;99.90
37050;DHT22;22958;51.232;6.826;2023-05-21T10:22:24;22.30;99.90
37050;DHT22;22958;51.232;6.826;2023-05-21T10:24:51;22.60;99.90
37050;DHT22;22958;51.232;6.826;2023-05-21T10:27:17;23.00;99.90
37050;DHT22;22958;51.232;6.826;2023-05-21T10:29:43;23.30;99.90
37050;DHT22;22958;51.232;6.826;2023-05-21T10:32:11;23.70;99.90
37050;DHT22;22958;51.232;6.826;2023-05-21T10:34:37;22.80;99.90
37050;DHT22;22958;51.232;6.826;2023-05-21T10:37:03;21.60;99.90
37050;DHT22;22958;51.232;6.826;2023-05-21T10:39:31;22.20;99.90
37050;DHT22;22958;51.232;6.826;2023-05-21T10:44:39;23.30;99.90
37050;DHT22;22958;51.232;6.826;2023-05-21T10:53:19;24.40;99.90
37050;DHT22;22958;51.232;6.826;2023-05-21T10:55:58;24.80;99.90
37050;DHT22;22958;51.232;6.826;2023-05-21T11:01:16;24.40;99.90
37050;DHT22;22958;51.232;6.826;2023-05-21T11:03:45;23.80;99.90
37050;DHT22;22958;51.232;6.826;2023-05-21T11:06:10;24.30;99.90
37050;DHT22;22958;51.232;6.826;2023-05-21T11:08:46;25.00;99.90
37050;DHT22;22958;51.232;6.826;2023-05-21T11:11:12;25.40;99.90
37050;DHT22;22958;51.232;6.826;2023-05-21T11:13:47;25.90;99.90
37050;DHT22;22958;51.232;6.826;2023-05-21T11:16:16;26.40;99.90
37050;DHT22;22958;51.232;6.826;2023-05-21T11:21:15;26.90;99.90
37050;DHT22;22958;51.232;6.826;2023-05-21T11:23:53;26.10;99.90
37050;DHT22;22958;51.232;6.826;2023-05-21T11:26:27;27.00;99.90
37050;DHT22;22958;51.232;6.826;2023-05-21T11:31:27;27.20;99.20
37050;DHT22;22958;51.232;6.826;2023-05-21T11:36:33;28.60;96.90
37050;DHT22;22958;51.232;6.826;2023-05-21T11:39:14;28.90;96.60
37050;DHT22;22958;51.232;6.826;2023-05-21T11:44:14;28.60;96.50
37050;DHT22;22958;51.232;6.826;2023-05-21T11:46:39;29.00;96.00
37050;DHT22;22958;51.232;6.826;2023-05-21T11:49:06;29.70;95.40
37050;DHT22;22958;51.232;6.826;2023-05-21T11:51:33;29.80;94.80
37050;DHT22;22958;51.232;6.826;2023-05-21T11:53:58;31.90;92.70
37050;DHT22;22958;51.232;6.826;2023-05-21T11:56:25;31.30;91.40
37050;DHT22;22958;51.232;6.826;2023-05-21T11:58:55;31.00;91.10
37050;DHT22;22958;51.232;6.826;2023-05-21T12:01:22;31.40;89.10
37050;DHT22;22958;51.232;6.826;2023-05-21T12:03:47;31.40;89.80
37050;DHT22;22958;51.232;6.826;2023-05-21T12:06:13;32.40;88.30
37050;DHT22;22958;51.232;6.826;2023-05-21T12:08:38;32.10;87.60
37050;DHT22;22958;51.232;6.826;2023-05-21T12:11:04;31.50;87.70
37050;DHT22;22958;51.232;6.826;2023-05-21T12:13:29;31.00;88.80
37050;DHT22;22958;51.232;6.826;2023-05-21T12:15:56;31.50;87.40
37050;DHT22;22958;51.232;6.826;2023-05-21T12:18:21;30.90;85.70
37050;DHT22;22958;51.232;6.826;2023-05-21T12:20:47;31.70;85.10
37050;DHT22;22958;51.232;6.826;2023-05-21T12:23:23;31.30;87.00
37050;DHT22;22958;51.232;6.826;2023-05-21T12:25:50;32.20;84.80
37050;DHT22;22958;51.232;6.826;2023-05-21T12:28:15;31.30;84.10
37050;DHT22;22958;51.232;6.826;2023-05-21T12:30:41;30.90;86.50
37050;DHT22;22958;51.232;6.826;2023-05-21T12:33:07;31.60;86.40
37050;DHT22;22958;51.232;6.826;2023-05-21T12:35:32;31.30;84.60
37050;DHT22;22958;51.232;6.826;2023-05-21T12:38:01;32.00;84.50
37050;DHT22;22958;51.232;6.826;2023-05-21T12:40:35;31.40;84.00
37050;DHT22;22958;51.232;6.826;2023-05-21T12:43:02;32.90;82.70
37050;DHT22;22958;51.232;6.826;2023-05-21T12:45:31;32.60;81.40
37050;DHT22;22958;51.232;6.826;2023-05-21T12:48:01;33.20;79.90
37050;DHT22;22958;51.232;6.826;2023-05-21T12:50:26;33.90;78.80
37050;DHT22;22958;51.232;6.826;2023-05-21T12:52:57;33.70;77.40
37050;DHT22;22958;51.232;6.826;2023-05-21T12:55:24;33.40;76.60
37050;DHT22;22958;51.232;6.826;2023-05-21T12:58:00;34.70;74.80
37050;DHT22;22958;51.232;6.826;2023-05-21T13:00:27;34.00;75.30
37050;DHT22;22958;51.232;6.826;2023-05-21T13:02:54;34.70;74.60
37050;DHT22;22958;51.232;6.826;2023-05-21T13:05:20;33.40;75.80
37050;DHT22;22958;51.232;6.826;2023-05-21T13:07:46;34.60;74.60
37050;DHT22;22958;51.232;6.826;2023-05-21T13:10:12;34.60;74.70
37050;DHT22;22958;51.232;6.826;2023-05-21T13:12:38;32.60;74.70
37050;DHT22;22958;51.232;6.826;2023-05-21T13:15:04;32.70;76.10
37050;DHT22;22958;51.232;6.826;2023-05-21T13:17:31;33.00;74.70
37050;DHT22;22958;51.232;6.826;2023-05-21T13:20:17;33.70;74.30
37050;DHT22;22958;51.232;6.826;2023-05-21T13:22:46;34.30;74.00
37050;DHT22;22958;51.232;6.826;2023-05-21T13:25:13;35.10;72.70
37050;DHT22;22958;51.232;6.826;2023-05-21T13:27:43;34.20;74.20
37050;DHT22;22958;51.232;6.826;2023-05-21T13:30:10;32.80;73.20
37050;DHT22;22958;51.232;6.826;2023-05-21T13:32:36;31.60;75.90
37050;DHT22;22958;51.232;6.826;2023-05-21T13:35:02;31.50;78.20
37050;DHT22;22958;51.232;6.826;2023-05-21T13:37:28;30.90;79.00
37050;DHT22;22958;51.232;6.826;2023-05-21T13:39:54;31.90;78.00
37050;DHT22;22958;51.232;6.826;2023-05-21T13:42:20;32.70;76.90
37050;DHT22;22958;51.232;6.826;2023-05-21T13:44:46;33.30;76.50
37050;DHT22;22958;51.232;6.826;2023-05-21T13:47:12;33.70;76.00
37050;DHT22;22958;51.232;6.826;2023-05-21T13:49:38;32.80;73.70
37050;DHT22;22958;51.232;6.826;2023-05-21T13:52:04;32.80;73.50
37050;DHT22;22958;51.232;6.826;2023-05-21T13:54:30;32.90;72.80
37050;DHT22;22958;51.232;6.826;2023-05-21T13:56:56;33.60;72.90
37050;DHT22;22958;51.232;6.826;2023-05-21T13:59:22;33.40;72.20
37050;DHT22;22958;51.232;6.826;2023-05-21T14:01:47;34.10;71.60
37050;DHT22;22958;51.232;6.826;2023-05-21T14:04:15;34.20;72.80
37050;DHT22;22958;51.232;6.826;2023-05-21T14:06:41;33.30;72.30
37050;DHT22;22958;51.232;6.826;2023-05-21T14:09:06;32.40;74.90
37050;DHT22;22958;51.232;6.826;2023-05-21T14:11:32;32.40;75.70
37050;DHT22;22958;51.232;6.826;2023-05-21T14:13:58;32.60;75.60
37050;DHT22;22958;51.232;6.826;2023-05-21T14:16:24;30.30;79.70
37050;DHT22;22958;51.232;6.826;2023-05-21T14:18:54;29.30;83.80
37050;DHT22;22958;51.232;6.826;2023-05-21T14:21:20;29.80;83.20
37050;DHT22;22958;51.232;6.826;2023-05-21T14:23:46;29.20;83.70
37050;DHT22;22958;51.232;6.826;2023-05-21T14:26:11;28.60;85.20
37050;DHT22;22958;51.232;6.826;2023-05-21T14:28:37;29.00;86.10
37050;DHT22;22958;51.232;6.826;2023-05-21T14:31:02;29.70;82.30
37050;DHT22;22958;51.232;6.826;2023-05-21T14:33:29;29.80;82.30
37050;DHT22;22958;51.232;6.826;2023-05-21T14:35:55;30.50;80.10
37050;DHT22;22958;51.232;6.826;2023-05-21T14:38:20;31.70;78.90
37050;DHT22;22958;51.232;6.826;2023-05-21T14:40:46;31.00;79.30
37050;DHT22;22958;51.232;6.826;2023-05-21T14:43:11;30.60;79.30
37050;DHT22;22958;51.232;6.826;2023-05-21T14:45:37;31.00;79.30
37050;DHT22;22958;51.232;6.826;2023-05-21T14:48:03;30.90;79.80
37050;DHT22;22958;51.232;6.826;2023-05-21T14:50:38;31.00;79.60
37050;DHT22;22958;51.232;6.826;2023-05-21T14:53:05;30.60;79.80
37050;DHT22;22958;51.232;6.826;2023-05-21T14:55:31;30.10;80.60
37050;DHT22;22958;51.232;6.826;2023-05-21T14:57:59;28.90;82.70
37050;DHT22;22958;51.232;6.826;2023-05-21T15:00:25;29.10;83.80
37050;DHT22;22958;51.232;6.826;2023-05-21T15:02:50;28.70;86.00
37050;DHT22;22958;51.232;6.826;2023-05-21T15:05:17;29.10;85.80
37050;DHT22;22958;51.232;6.826;2023-05-21T15:07:42;28.90;87.10
37050;DHT22;22958;51.232;6.826;2023-05-21T15:10:08;29.90;85.00
37050;DHT22;22958;51.232;6.826;2023-05-21T15:12:35;30.00;82.80
37050;DHT22;22958;51.232;6.826;2023-05-21T15:15:00;30.20;83.40
37050;DHT22;22958;51.232;6.826;2023-05-21T15:17:26;29.90;83.00
37050;DHT22;22958;51.232;6.826;2023-05-21T15:19:51;29.50;83.40
37050;DHT22;22958;51.232;6.826;2023-05-21T15:22:17;29.90;83.60
37050;DHT22;22958;51.232;6.826;2023-05-21T15:24:42;30.00;83.70
37050;DHT22;22958;51.232;6.826;2023-05-21T15:27:09;30.00;84.30
37050;DHT22;22958;51.232;6.826;2023-05-21T15:29:34;30.10;83.50
37050;DHT22;22958;51.232;6.826;2023-05-21T15:32:00;30.30;83.70
37050;DHT22;22958;51.232;6.826;2023-05-21T15:34:32;30.30;82.90
37050;DHT22;22958;51.232;6.826;2023-05-21T15:36:57;30.60;83.40
37050;DHT22;22958;51.232;6.826;2023-05-21T15:39:23;29.70;84.70
37050;DHT22;22958;51.232;6.826;2023-05-21T15:41:48;29.90;85.00
37050;DHT22;22958;51.232;6.826;2023-05-21T15:44:14;30.30;84.00
37050;DHT22;22958;51.232;6.826;2023-05-21T15:46:39;30.70;83.20
37050;DHT22;22958;51.232;6.826;2023-05-21T15:49:05;30.50;83.10
37050;DHT22;22958;51.232;6.826;2023-05-21T15:51:31;30.50;83.60
37050;DHT22;22958;51.232;6.826;2023-05-21T15:53:56;30.30;83.50